Time;durP1;ratioP1;P1;durP2;ratioP2;P2;SDS_P1;SDS_P2;PMS_P1;PMS_P2;Temp;Humidity;BMP_temperature;BMP_pressure;BME280_temperature;BME280_humidity;BME280_pressure;Samples;Min_cycle;Max_cycle;Signal;HPM_P1;HPM_P2
2023/07/31 00:02:24;;;;;;;2.53;1.60;;;;;;;25.71;58.31;99863.25;5092867;28;20047;-64
2023/07/31 00:04:53;;;;;;;3.25;1.67;;;;;;;25.72;58.14;99869.56;5092957;28;20404;-64
2023/07/31 00:07:21;;;;;;;3.30;1.60;;;;;;;25.70;58.07;99869.75;5092601;28;20044;-64
2023/07/31 00:09:50;;;;;;;2.92;1.60;;;;;;;25.69;57.82;99868.88;5092712;28;20109;-64
2023/07/31 00:12:18;;;;;;;2.88;1.70;;;;;;;25.67;57.91;99861.91;5092565;28;20043;-64
2023/07/31 00:14:46;;;;;;;2.10;1.50;;;;;;;25.66;57.72;99872.00;5092609;28;20177;-64
2023/07/31 00:17:15;;;;;;;2.72;1.60;;;;;;;25.63;58.14;99866.94;5092339;28;20044;-64
2023/07/31 00:19:43;;;;;;;2.85;1.70;;;;;;;25.65;58.10;99874.94;5092388;28;20573;-64
2023/07/31 00:22:12;;;;;;;2.58;1.63;;;;;;;25.63;57.97;99869.66;5092377;28;20509;-65
2023/07/31 00:24:41;;;;;;;2.30;1.58;;;;;;;25.63;58.05;99874.28;5092598;28;20044;-65
2023/07/31 00:27:09;;;;;;;2.72;1.75;;;;;;;25.62;58.10;99873.44;5092214;28;20552;-65
2023/07/31 00:29:37;;;;;;;2.55;1.60;;;;;;;25.63;58.15;99871.56;5092501;28;20044;-65
2023/07/31 00:32:06;;;;;;;2.15;1.42;;;;;;;25.62;58.16;99876.19;5091666;28;20051;-65
2023/07/31 00:34:35;;;;;;;2.50;1.60;;;;;;;25.60;58.10;99872.81;5074399;28;20409;-65
2023/07/31 00:37:03;;;;;;;2.53;1.60;;;;;;;25.60;57.80;99870.06;5092286;28;20459;-65
2023/07/31 00:39:35;;;;;;;2.85;1.52;;;;;;;25.61;57.68;99879.09;5092270;28;20052;-65
2023/07/31 00:42:04;;;;;;;3.95;1.83;;;;;;;25.60;57.65;99883.72;5092308;28;20052;-65
2023/07/31 00:44:32;;;;;;;2.42;1.40;;;;;;;25.59;58.11;99879.31;5092084;28;20511;-66
2023/07/31 00:47:01;;;;;;;2.53;1.60;;;;;;;25.59;57.84;99887.50;5091941;28;20044;-65
2023/07/31 00:49:29;;;;;;;2.00;1.42;;;;;;;25.57;57.85;99889.56;5092195;28;20071;-65
2023/07/31 00:51:58;;;;;;;2.20;1.40;;;;;;;25.56;58.31;99893.34;5092163;28;20079;-64
2023/07/31 00:54:26;;;;;;;2.45;1.67;;;;;;;25.56;58.12;99893.34;5092109;28;20044;-65
2023/07/31 00:56:56;;;;;;;2.47;1.52;;;;;;;25.55;57.76;99880.72;5091808;28;20062;-64
2023/07/31 00:59:24;;;;;;;2.90;1.80;;;;;;;25.53;57.76;99885.56;5091759;28;20044;-65
2023/07/31 01:01:55;;;;;;;2.22;1.50;;;;;;;25.53;57.83;99882.81;5092011;28;20044;-63
2023/07/31 01:04:24;;;;;;;2.38;1.60;;;;;;;25.53;58.19;99893.75;5091940;28;20157;-65
2023/07/31 01:06:58;;;;;;;2.90;1.70;;;;;;;25.52;58.08;99886.59;5091773;28;20131;-64
2023/07/31 01:09:35;;;;;;;1.98;1.45;;;;;;;25.52;57.83;99885.75;5091891;28;20044;-64
2023/07/31 01:12:07;;;;;;;2.08;1.48;;;;;;;25.50;57.70;99885.97;5091482;28;20044;-64
2023/07/31 01:14:37;;;;;;;3.13;1.75;;;;;;;25.51;58.21;99884.06;5091600;28;20097;-65
2023/07/31 01:17:06;;;;;;;3.10;1.70;;;;;;;25.49;57.79;99881.53;5091680;28;20075;-64
2023/07/31 01:19:34;;;;;;;3.38;1.70;;;;;;;25.48;58.05;99890.78;5091601;28;20079;-65
2023/07/31 01:22:24;;;;;;;2.63;1.52;;;;;;;25.47;57.59;99889.06;5091562;28;20090;-65
2023/07/31 01:25:01;;;;;;;2.35;1.50;;;;;;;25.47;57.90;99888.22;5090972;28;20051;-65
2023/07/31 01:27:41;;;;;;;3.13;1.75;;;;;;;25.46;57.66;99892.00;5091445;28;20140;-65
2023/07/31 01:30:14;;;;;;;2.95;1.88;;;;;;;25.45;57.93;99901.22;5091615;28;20152;-63
2023/07/31 01:32:44;;;;;;;3.40;1.85;;;;;;;25.41;57.62;99895.34;5091542;28;20117;-65
2023/07/31 01:35:13;;;;;;;2.92;1.80;;;;;;;25.40;57.75;99904.56;5091343;28;20489;-63
2023/07/31 01:37:41;;;;;;;2.47;1.58;;;;;;;25.37;57.56;99899.47;5091465;28;20044;-64
2023/07/31 01:40:09;;;;;;;3.05;1.90;;;;;;;25.36;57.70;99897.78;5091572;28;20040;-64
2023/07/31 01:42:39;;;;;;;2.78;1.77;;;;;;;25.32;57.66;99891.91;5091230;28;20486;-64
2023/07/31 01:45:09;;;;;;;2.38;1.63;;;;;;;25.30;57.82;99893.13;5091280;28;20065;-64
2023/07/31 01:47:37;;;;;;;3.10;1.90;;;;;;;25.32;57.77;99896.50;5091072;28;20105;-64
2023/07/31 01:50:06;;;;;;;3.25;1.63;;;;;;;25.29;57.68;99896.91;5091481;28;20048;-65
2023/07/31 01:52:34;;;;;;;2.28;1.55;;;;;;;25.28;57.58;99900.66;5091279;28;20071;-65
2023/07/31 01:55:03;;;;;;;2.60;1.70;;;;;;;25.27;58.05;99893.50;5073596;28;20052;-64
2023/07/31 01:57:31;;;;;;;2.78;1.60;;;;;;;25.26;57.99;99891.81;5091059;28;20059;-65
2023/07/31 02:00:00;;;;;;;2.72;1.60;;;;;;;25.25;57.99;99881.94;5091183;28;20048;-64
2023/07/31 02:02:29;;;;;;;2.70;1.60;;;;;;;25.25;57.68;99880.06;5091112;28;20485;-64
2023/07/31 02:04:57;;;;;;;2.88;1.70;;;;;;;25.25;57.85;99877.34;5073370;28;20048;-63
2023/07/31 02:07:25;;;;;;;2.88;1.77;;;;;;;25.26;57.60;99875.44;5091114;28;20048;-65
2023/07/31 02:09:54;;;;;;;2.50;1.52;;;;;;;25.25;58.06;99879.22;5090950;28;20060;-65
2023/07/31 02:12:22;;;;;;;2.97;1.77;;;;;;;25.24;57.79;99883.00;5091129;28;20060;-64
2023/07/31 02:14:50;;;;;;;2.95;1.88;;;;;;;25.24;57.89;99881.09;5090955;28;20044;-65
2023/07/31 02:17:20;;;;;;;2.97;1.80;;;;;;;25.23;58.09;99881.31;5090822;28;20056;-64
2023/07/31 02:19:49;;;;;;;2.88;1.73;;;;;;;25.21;57.95;99876.06;5091118;28;20051;-65
2023/07/31 02:22:18;;;;;;;3.10;1.67;;;;;;;25.21;57.70;99877.94;5091061;28;20146;-65
2023/07/31 02:24:46;;;;;;;3.03;1.80;;;;;;;25.21;57.99;99877.94;5091018;28;20044;-65
2023/07/31 02:27:14;;;;;;;2.67;1.75;;;;;;;25.19;57.72;99891.78;5090878;28;20040;-65
2023/07/31 02:29:42;;;;;;;3.30;2.00;;;;;;;25.19;57.53;99885.44;5091222;28;20089;-64
2023/07/31 02:32:11;;;;;;;2.08;1.48;;;;;;;25.20;57.57;99882.56;5091063;28;20051;-65
2023/07/31 02:34:41;;;;;;;3.00;1.80;;;;;;;25.21;57.62;99888.84;5091965;28;20101;-65
2023/07/31 02:37:09;;;;;;;4.07;1.48;;;;;;;25.20;57.86;99893.47;5094496;28;20091;-65
2023/07/31 02:39:38;;;;;;;3.50;1.70;;;;;;;25.19;57.75;99901.81;5094560;28;20074;-65
2023/07/31 02:42:06;;;;;;;3.05;1.75;;;;;;;25.17;57.69;99895.72;5094284;28;20047;-64
2023/07/31 02:44:35;;;;;;;3.80;1.70;;;;;;;25.17;57.57;99898.44;5094549;28;20059;-65
2023/07/31 02:47:04;;;;;;;2.78;1.80;;;;;;;25.15;57.83;99889.63;5094460;28;20078;-65
2023/07/31 02:49:32;;;;;;;3.10;1.80;;;;;;;25.14;57.84;99877.03;5094343;28;20052;-64
2023/07/31 02:52:01;;;;;;;2.83;1.63;;;;;;;25.13;57.83;99884.38;5094411;28;20050;-64
2023/07/31 02:54:30;;;;;;;2.85;1.77;;;;;;;25.13;57.47;99902.63;5094069;28;20501;-64
2023/07/31 02:56:58;;;;;;;2.83;1.90;;;;;;;25.11;57.71;99903.66;5094278;28;20545;-65
2023/07/31 02:59:26;;;;;;;3.40;1.65;;;;;;;25.10;57.64;99910.16;5094199;28;20098;-64
2023/07/31 03:01:54;;;;;;;3.28;1.77;;;;;;;25.07;57.51;99905.06;5094184;28;20050;-64
2023/07/31 03:04:22;;;;;;;2.55;1.70;;;;;;;25.06;57.21;99908.00;5094098;28;20184;-65
2023/07/31 03:06:50;;;;;;;2.72;1.80;;;;;;;25.06;57.33;99903.38;5093849;28;20052;-64
2023/07/31 03:09:20;;;;;;;2.53;1.80;;;;;;;25.05;57.32;99912.63;5093831;28;20063;-63
2023/07/31 03:11:48;;;;;;;2.95;1.70;;;;;;;25.03;57.56;99909.25;5093782;28;20134;-63
2023/07/31 03:14:17;;;;;;;2.53;1.70;;;;;;;25.02;57.27;99921.19;5093955;28;20135;-63
2023/07/31 03:16:45;;;;;;;2.55;1.70;;;;;;;25.00;57.32;99915.06;5093883;28;20040;-63
2023/07/31 03:19:13;;;;;;;2.72;1.80;;;;;;;24.99;57.40;99918.81;5093606;28;20383;-64
2023/07/31 03:21:42;;;;;;;3.72;1.88;;;;;;;24.97;57.66;99920.88;5093870;28;20435;-63
2023/07/31 03:24:11;;;;;;;4.18;1.95;;;;;;;24.98;57.52;99922.56;5093874;28;20106;-65
2023/07/31 03:26:44;;;;;;;3.45;2.00;;;;;;;24.98;57.11;99921.72;5093748;28;20044;-65
2023/07/31 03:29:12;;;;;;;2.05;1.50;;;;;;;24.95;57.19;99917.53;5093560;28;20447;-64
2023/07/31 03:31:41;;;;;;;2.67;1.65;;;;;;;24.94;57.50;99915.84;5093483;28;20044;-64
2023/07/31 03:34:09;;;;;;;3.00;1.75;;;;;;;24.93;57.30;99921.47;5093298;28;20132;-64
2023/07/31 03:36:37;;;;;;;3.60;1.80;;;;;;;24.94;57.17;99936.81;5093470;28;20143;-64
2023/07/31 03:39:06;;;;;;;3.10;1.90;;;;;;;24.92;57.25;99923.38;5093128;28;20051;-63
2023/07/31 03:41:33;;;;;;;2.58;1.70;;;;;;;24.91;57.51;99921.69;5093422;28;20052;-65
2023/07/31 03:44:03;;;;;;;2.15;1.60;;;;;;;24.92;57.23;99923.38;5093266;28;20044;-65
2023/07/31 03:46:31;;;;;;;2.50;1.65;;;;;;;24.90;57.19;99920.00;5092463;28;20139;-65
2023/07/31 03:49:00;;;;;;;2.83;1.63;;;;;;;24.89;57.02;99915.56;5093035;28;20052;-63
2023/07/31 03:51:28;;;;;;;2.83;1.60;;;;;;;24.89;57.11;99922.88;5093025;28;20048;-64
2023/07/31 03:53:56;;;;;;;2.95;1.70;;;;;;;24.88;57.32;99938.41;5093248;28;20428;-64
2023/07/31 03:56:25;;;;;;;2.63;1.60;;;;;;;24.87;57.01;99934.00;5092891;28;20055;-64
2023/07/31 03:58:53;;;;;;;3.40;1.70;;;;;;;24.87;57.20;99938.59;5092884;28;20465;-65
2023/07/31 04:01:22;;;;;;;3.90;1.75;;;;;;;24.86;57.08;99932.31;5092621;28;20127;-64
2023/07/31 04:03:51;;;;;;;3.65;1.80;;;;;;;24.84;57.19;99928.94;5093060;28;20102;-64
2023/07/31 04:06:19;;;;;;;3.13;1.85;;;;;;;24.86;57.18;99931.47;5092926;28;20052;-64
2023/07/31 04:08:47;;;;;;;2.70;1.80;;;;;;;24.85;56.96;99933.34;5092938;28;20155;-64
2023/07/31 04:11:19;;;;;;;2.85;1.80;;;;;;;24.84;57.00;99937.13;5092581;28;20051;-64
2023/07/31 04:13:47;;;;;;;2.55;1.70;;;;;;;24.81;57.12;99929.34;5092837;28;20052;-65
2023/07/31 04:16:15;;;;;;;3.50;1.80;;;;;;;24.83;56.82;99932.72;5092665;28;20059;-64
2023/07/31 04:18:45;;;;;;;3.70;1.83;;;;;;;24.82;56.85;99933.75;5092748;28;20087;-64
2023/07/31 04:21:13;;;;;;;2.78;1.80;;;;;;;24.80;56.92;99935.78;5092611;28;20044;-64
2023/07/31 04:23:41;;;;;;;2.10;1.50;;;;;;;24.80;56.88;99933.06;5092600;28;20519;-65
2023/07/31 04:26:09;;;;;;;3.03;1.80;;;;;;;24.78;56.88;99938.72;5092486;28;20083;-64
2023/07/31 04:28:38;;;;;;;2.20;1.63;;;;;;;24.77;56.86;99931.56;5092266;28;20044;-64
2023/07/31 04:31:06;;;;;;;2.30;1.50;;;;;;;24.75;57.07;99932.81;5092274;28;20548;-64
2023/07/31 04:33:34;;;;;;;3.15;1.50;;;;;;;24.73;57.00;99935.75;5092242;28;20044;-64
2023/07/31 04:36:04;;;;;;;2.83;1.63;;;;;;;24.72;56.92;99938.66;5092306;28;20044;-64
2023/07/31 04:38:32;;;;;;;2.55;1.55;;;;;;;24.70;57.00;99936.09;5092137;28;20561;-64
2023/07/31 04:41:05;;;;;;;2.95;1.65;;;;;;;24.69;57.13;99939.03;5092001;28;20277;-64
2023/07/31 04:43:33;;;;;;;;;;;;;;;24.69;56.94;99937.13;5092381;28;20052;-64
2023/07/31 04:46:01;;;;;;;3.42;1.77;;;;;;;24.68;57.00;99940.06;5092058;28;19940;-64
2023/07/31 04:48:30;;;;;;;2.72;1.65;;;;;;;24.67;56.88;99941.94;5091944;28;20090;-65
2023/07/31 04:50:58;;;;;;;2.63;1.60;;;;;;;24.66;56.78;99940.25;5091745;28;20474;-65
2023/07/31 04:53:28;;;;;;;2.70;1.60;;;;;;;24.64;57.02;99947.78;5092007;28;20421;-65
2023/07/31 04:55:56;;;;;;;2.38;1.50;;;;;;;24.64;57.05;99946.94;5091913;28;20040;-65
2023/07/31 04:58:24;;;;;;;3.40;1.52;;;;;;;24.65;57.15;99954.09;5091991;28;20055;-64
2023/07/31 05:00:53;;;;;;;3.40;1.60;;;;;;;24.65;56.81;99959.53;5091742;28;20131;-64
2023/07/31 05:03:21;;;;;;;2.33;1.50;;;;;;;24.64;56.73;99958.69;5091789;28;20579;-64
2023/07/31 05:05:51;;;;;;;2.60;1.50;;;;;;;24.62;56.85;99951.75;5091949;28;20109;-64
2023/07/31 05:08:19;;;;;;;3.08;1.80;;;;;;;24.62;57.06;99955.31;5091535;28;20055;-64
2023/07/31 05:10:49;;;;;;;2.78;1.63;;;;;;;24.63;56.92;99953.44;5073703;28;20102;-64
2023/07/31 05:13:17;;;;;;;2.85;1.70;;;;;;;24.63;56.81;99956.16;5091969;28;20075;-64
2023/07/31 05:15:46;;;;;;;3.20;1.80;;;;;;;24.62;56.47;99959.94;5091623;28;20098;-65
2023/07/31 05:18:14;;;;;;;3.70;2.05;;;;;;;24.65;56.58;99970.44;5091456;28;20051;-65
2023/07/31 05:20:42;;;;;;;3.33;1.67;;;;;;;24.64;56.46;99957.84;5091407;28;20127;-65
2023/07/31 05:23:10;;;;;;;2.65;1.60;;;;;;;24.63;56.71;99967.91;5091355;28;20044;-63
2023/07/31 05:25:39;;;;;;;2.88;1.52;;;;;;;24.66;56.75;99966.69;5091540;28;20080;-65
2023/07/31 05:28:09;;;;;;;2.80;1.42;;;;;;;24.65;56.45;99970.44;5091349;28;20044;-65
2023/07/31 05:30:37;;;;;;;3.60;1.65;;;;;;;24.65;56.51;99979.47;5091426;28;20088;-64
2023/07/31 05:33:05;;;;;;;2.80;1.40;;;;;;;24.65;56.51;99976.75;5091149;28;20048;-64
2023/07/31 05:35:33;;;;;;;2.67;1.63;;;;;;;24.63;56.65;99973.38;5091212;28;20044;-65
2023/07/31 05:38:01;;;;;;;3.22;1.52;;;;;;;24.64;56.59;99968.75;5091256;28;20080;-65
2023/07/31 05:40:32;;;;;;;3.22;1.40;;;;;;;24.65;56.55;99981.34;5091267;28;20059;-65
2023/07/31 05:43:01;;;;;;;2.47;1.48;;;;;;;24.64;56.47;99971.50;5091350;28;20381;-65
2023/07/31 05:45:30;;;;;;;2.50;1.48;;;;;;;24.64;56.29;99968.75;5091160;28;20087;-62
2023/07/31 05:47:58;;;;;;;2.28;1.40;;;;;;;24.63;56.55;99969.81;5090471;28;20066;-64
2023/07/31 05:50:27;;;;;;;2.42;1.50;;;;;;;24.63;56.66;99977.97;5089770;28;20147;-65
2023/07/31 05:52:55;;;;;;;2.15;1.40;;;;;;;24.64;56.33;99985.13;5091271;28;20052;-65
2023/07/31 05:55:23;;;;;;;3.00;1.58;;;;;;;24.63;56.57;99983.44;5090927;28;20083;-64
2023/07/31 05:57:51;;;;;;;3.00;1.77;;;;;;;24.63;56.42;99986.16;5090647;28;20465;-67
2023/07/31 06:00:20;;;;;;;1.80;1.30;;;;;;;24.63;56.22;99988.88;5091094;28;20052;-65
2023/07/31 06:02:50;;;;;;;5.55;1.60;;;;;;;24.63;56.28;99983.44;5091036;28;20048;-64
2023/07/31 06:05:18;;;;;;;3.42;1.65;;;;;;;24.62;56.04;99988.03;5091201;28;20047;-65
2023/07/31 06:07:46;;;;;;;3.13;1.55;;;;;;;24.60;56.04;99991.97;5091084;28;20048;-65
2023/07/31 06:10:15;;;;;;;2.70;1.50;;;;;;;24.60;56.13;99986.53;5092754;28;20139;-65
2023/07/31 06:12:43;;;;;;;3.15;1.65;;;;;;;24.60;55.92;99989.25;5095030;28;20039;-66
2023/07/31 06:15:12;;;;;;;4.03;1.73;;;;;;;24.60;55.95;99997.44;5094763;28;20060;-66
2023/07/31 06:17:40;;;;;;;1.95;1.30;;;;;;;24.60;55.89;99989.25;5090331;28;20049;-66
2023/07/31 06:20:10;;;;;;;2.95;1.60;;;;;;;24.59;55.75;99993.00;5086063;28;20059;-63
2023/07/31 06:22:39;;;;;;;2.58;1.50;;;;;;;24.59;55.52;99993.84;5074669;28;20151;-65
2023/07/31 06:25:07;;;;;;;2.47;1.50;;;;;;;24.57;55.47;99995.09;5074507;28;20044;-65
2023/07/31 06:27:38;;;;;;;3.35;1.77;;;;;;;24.57;55.30;99987.75;5074453;28;20048;-64
2023/07/31 06:30:08;;;;;;;2.55;1.50;;;;;;;24.57;55.58;99989.63;5074421;28;20048;-64
2023/07/31 06:32:36;;;;;;;3.83;1.60;;;;;;;24.57;55.53;99987.75;5074278;28;20048;-64
2023/07/31 06:35:05;;;;;;;3.03;1.50;;;;;;;24.58;55.29;99985.88;5074350;28;20060;-66
2023/07/31 06:37:35;;;;;;;3.80;1.40;;;;;;;24.58;55.28;99985.88;5074380;28;20051;-65
2023/07/31 06:40:07;;;;;;;3.17;1.50;;;;;;;24.55;55.28;99977.03;5074082;28;20054;-66
2023/07/31 06:42:36;;;;;;;3.13;1.52;;;;;;;24.58;55.20;99986.72;5074073;28;20090;-66
2023/07/31 06:45:04;;;;;;;2.35;1.50;;;;;;;24.57;55.30;99985.03;5074096;28;20102;-65
2023/07/31 06:47:33;;;;;;;2.60;1.58;;;;;;;24.57;55.21;99981.47;5084260;28;20543;-68
2023/07/31 06:50:01;;;;;;;2.72;1.67;;;;;;;24.55;55.26;99981.66;5094259;28;20660;-63
2023/07/31 06:52:29;;;;;;;3.15;1.70;;;;;;;24.57;54.73;99986.91;5094160;28;20072;-64
2023/07/31 06:55:18;;;;;;;3.20;1.50;;;;;;;24.54;54.90;99988.97;5094048;28;20422;-66
2023/07/31 06:57:46;;;;;;;3.33;1.60;;;;;;;24.54;55.00;99991.72;5094343;28;20084;-64
2023/07/31 07:00:15;;;;;;;2.63;1.50;;;;;;;24.53;54.97;99990.03;5094135;28;20055;-65
2023/07/31 07:02:43;;;;;;;4.55;2.00;;;;;;;24.54;54.56;99996.31;5093868;28;20485;-64
2023/07/31 07:05:12;;;;;;;4.97;1.70;;;;;;;24.55;55.08;99993.41;5093871;28;20048;-64
2023/07/31 07:07:42;;;;;;;4.60;1.70;;;;;;;24.55;54.86;100006.19;5093757;28;20119;-64
2023/07/31 07:10:11;;;;;;;2.85;1.58;;;;;;;24.53;54.91;99995.47;5093920;28;20131;-64
2023/07/31 07:12:42;;;;;;;3.70;1.60;;;;;;;24.53;54.83;99995.47;5093856;28;20108;-65
2023/07/31 07:15:11;;;;;;;3.80;1.70;;;;;;;24.54;54.79;99997.16;5093678;28;20044;-66
2023/07/31 07:17:41;;;;;;;4.75;1.70;;;;;;;24.54;54.66;99999.88;5093586;28;20051;-66
2023/07/31 07:20:10;;;;;;;3.80;1.55;;;;;;;24.55;54.68;100003.47;5092864;28;20142;-65
2023/07/31 07:22:38;;;;;;;2.20;1.40;;;;;;;24.53;54.79;100009.09;5090704;28;20044;-66
2023/07/31 07:25:07;;;;;;;4.00;1.67;;;;;;;24.53;54.61;100011.84;5091669;28;20477;-65
2023/07/31 07:27:37;;;;;;;3.72;1.60;;;;;;;24.53;54.45;100006.38;5091527;28;20040;-65
2023/07/31 07:30:07;;;;;;;2.80;1.50;;;;;;;24.55;54.60;99998.84;5091599;28;20050;-66
2023/07/31 07:32:35;;;;;;;3.22;1.60;;;;;;;24.51;54.55;99994.81;5092164;28;20105;-66
2023/07/31 07:35:03;;;;;;;3.80;1.70;;;;;;;24.53;54.34;100000.94;5092693;28;20501;-66
2023/07/31 07:37:32;;;;;;;2.60;1.50;;;;;;;24.53;54.80;100000.94;5093474;28;20059;-64
2023/07/31 07:40:01;;;;;;;2.42;1.50;;;;;;;24.53;54.48;100006.38;5093240;28;20095;-65
2023/07/31 07:42:29;;;;;;;2.97;1.40;;;;;;;24.54;54.38;99996.31;5093129;28;20048;-66
2023/07/31 07:44:59;;;;;;;3.17;1.52;;;;;;;24.51;54.62;99996.69;5093082;28;20048;-66
2023/07/31 07:47:27;;;;;;;3.55;1.63;;;;;;;24.54;54.06;99997.16;5093058;28;20131;-65
2023/07/31 07:49:56;;;;;;;2.40;1.50;;;;;;;24.54;54.33;100002.63;5093213;28;20435;-66
2023/07/31 07:52:25;;;;;;;3.22;1.40;;;;;;;24.55;53.96;100003.47;5093232;28;20051;-66
2023/07/31 07:54:53;;;;;;;2.70;1.40;;;;;;;24.54;54.06;100001.78;5093154;28;20048;-66
2023/07/31 07:57:21;;;;;;;3.85;1.40;;;;;;;24.53;53.94;99998.19;5092893;28;20044;-66
2023/07/31 07:59:49;;;;;;;2.97;1.48;;;;;;;24.53;53.94;100000.94;5092756;28;20052;-65
2023/07/31 08:02:19;;;;;;;3.30;1.73;;;;;;;24.53;54.22;100003.66;5093098;28;20043;-65
2023/07/31 08:04:47;;;;;;;1.98;1.27;;;;;;;24.52;53.90;100001.97;5092679;28;20044;-65
2023/07/31 08:07:15;;;;;;;2.75;1.50;;;;;;;24.48;53.89;99997.91;5092913;28;20270;-65
2023/07/31 08:09:44;;;;;;;3.03;1.40;;;;;;;24.52;53.91;100003.84;5092467;28;20565;-66
2023/07/31 08:12:12;;;;;;;2.88;1.40;;;;;;;24.53;53.88;99998.19;5093057;28;20126;-66
2023/07/31 08:14:40;;;;;;;2.17;1.40;;;;;;;24.52;53.24;99999.25;5092419;28;20044;-65
2023/07/31 08:17:09;;;;;;;2.45;1.58;;;;;;;24.52;53.42;100001.97;5092629;28;20134;-65
2023/07/31 08:19:38;;;;;;;3.47;1.35;;;;;;;24.51;52.96;100000.28;5092672;28;20044;-66
2023/07/31 08:22:07;;;;;;;2.92;1.42;;;;;;;24.49;52.90;99999.59;5092563;28;20134;-66
2023/07/31 08:24:35;;;;;;;1.85;1.30;;;;;;;24.51;52.83;100008.47;5092358;28;20076;-65
2023/07/31 08:27:03;;;;;;;3.38;1.50;;;;;;;24.50;53.24;99987.66;5092398;28;20470;-65
2023/07/31 08:29:31;;;;;;;2.63;1.40;;;;;;;24.51;52.96;99991.22;5092395;28;20533;-66
2023/07/31 08:32:00;;;;;;;2.13;1.20;;;;;;;24.51;52.95;99991.22;5092282;28;20040;-66
2023/07/31 08:34:28;;;;;;;2.63;1.50;;;;;;;24.51;52.76;99986.66;5092306;28;20081;-65
2023/07/31 08:37:00;;;;;;;2.83;1.40;;;;;;;24.51;52.55;99992.09;5092176;28;20044;-66
2023/07/31 08:39:28;;;;;;;2.67;1.42;;;;;;;24.51;52.94;99997.56;5092086;28;20565;-65
2023/07/31 08:42:00;;;;;;;2.97;1.50;;;;;;;24.51;52.29;99993.94;5091936;28;20584;-65
2023/07/31 08:44:28;;;;;;;3.70;1.55;;;;;;;24.52;52.55;100001.97;5092219;28;20051;-66
2023/07/31 08:46:56;;;;;;;3.78;1.48;;;;;;;24.52;52.25;99984.75;5092034;28;20052;-65
2023/07/31 08:49:25;;;;;;;3.22;1.50;;;;;;;24.53;52.01;99989.19;5091977;28;20044;-66
2023/07/31 08:51:57;;;;;;;3.47;1.48;;;;;;;24.50;51.72;99984.09;5091841;28;20044;-66
2023/07/31 08:54:30;;;;;;;4.60;1.60;;;;;;;24.51;51.57;99988.50;5092078;28;20083;-66
2023/07/31 08:56:59;;;;;;;3.05;1.40;;;;;;;24.51;51.07;99991.22;5091980;28;20055;-65
2023/07/31 08:59:31;;;;;;;3.67;1.60;;;;;;;24.50;51.24;99984.94;5091746;28;20556;-66
2023/07/31 09:02:06;;;;;;;2.33;1.27;;;;;;;24.51;51.32;99986.66;5091673;28;20048;-67
2023/07/31 09:04:34;;;;;;;2.67;1.50;;;;;;;24.52;50.90;99979.31;5091533;28;20044;-66
2023/07/31 09:07:04;;;;;;;3.47;1.40;;;;;;;24.51;50.78;99997.56;5091594;28;20072;-66
2023/07/31 09:09:34;;;;;;;3.50;1.30;;;;;;;24.52;50.71;99982.88;5091457;28;20044;-67
2023/07/31 09:12:03;;;;;;;4.20;1.55;;;;;;;24.52;50.53;99974.69;5091780;28;20044;-65
2023/07/31 09:14:31;;;;;;;2.50;1.50;;;;;;;24.52;50.03;99982.88;5092086;28;20044;-65
2023/07/31 09:17:00;;;;;;;2.78;1.30;;;;;;;24.53;50.55;99968.22;5091380;28;20052;-66
2023/07/31 09:19:31;;;;;;;3.35;1.35;;;;;;;24.52;50.40;99969.25;5091556;28;20101;-66
2023/07/31 09:21:59;;;;;;;3.90;1.50;;;;;;;24.54;50.55;99975.34;5091527;28;20048;-66
2023/07/31 09:24:28;;;;;;;2.80;1.65;;;;;;;24.54;50.04;99980.81;5091568;28;20439;-66
2023/07/31 09:26:59;;;;;;;2.55;1.40;;;;;;;24.55;50.52;99976.19;5091376;28;20048;-66
2023/07/31 09:29:29;;;;;;;3.42;1.45;;;;;;;24.57;50.43;99974.13;5091344;28;20044;-66
2023/07/31 09:31:58;;;;;;;3.03;1.40;;;;;;;24.57;50.11;99976.00;5091305;28;20134;-66
2023/07/31 09:34:31;;;;;;;3.55;1.60;;;;;;;24.59;50.04;99979.38;5091250;28;20481;-66
2023/07/31 09:37:03;;;;;;;2.17;1.30;;;;;;;24.59;50.38;99973.94;5091384;28;20048;-67
2023/07/31 09:39:32;;;;;;;3.40;1.63;;;;;;;24.60;50.48;99978.34;5091402;28;20048;-66
2023/07/31 09:42:01;;;;;;;2.38;1.25;;;;;;;24.61;50.41;99969.13;5091104;28;20362;-66
2023/07/31 09:44:40;;;;;;;3.45;1.70;;;;;;;24.61;50.00;99969.13;5091875;28;20044;-66
2023/07/31 09:47:23;;;;;;;2.83;1.60;;;;;;;24.62;49.90;99974.41;5095496;28;20048;-66
2023/07/31 09:49:51;;;;;;;2.72;1.20;;;;;;;24.65;49.60;99975.91;5095390;28;20058;-66
2023/07/31 09:52:19;;;;;;;3.25;1.48;;;;;;;24.65;49.27;99970.44;5095328;28;20056;-66
2023/07/31 09:54:48;;;;;;;2.03;1.20;;;;;;;24.66;49.09;99983.03;5095245;28;20048;-66
2023/07/31 09:57:19;;;;;;;3.20;1.42;;;;;;;24.67;48.98;99968.38;5095442;28;20044;-66
2023/07/31 09:59:49;;;;;;;3.20;1.33;;;;;;;24.67;48.77;99968.38;5095253;28;20044;-66
2023/07/31 10:02:24;;;;;;;3.03;1.50;;;;;;;24.68;48.76;99965.44;5095309;28;20083;-66
2023/07/31 10:04:56;;;;;;;3.92;1.30;;;;;;;24.71;48.82;99964.25;5095205;28;20072;-66
2023/07/31 10:07:26;;;;;;;2.95;1.60;;;;;;;24.71;49.03;99962.38;5095032;28;20051;-66
2023/07/31 10:09:56;;;;;;;2.65;1.48;;;;;;;24.72;49.20;99960.47;5095052;28;20413;-66
2023/07/31 10:12:27;;;;;;;2.00;1.27;;;;;;;24.72;49.26;99961.31;5095071;28;20052;-66
2023/07/31 10:14:56;;;;;;;3.10;1.45;;;;;;;24.74;49.48;99964.69;5094703;28;20331;-66
2023/07/31 10:17:25;;;;;;;2.08;1.20;;;;;;;24.76;49.57;99961.78;5095016;28;20052;-66
2023/07/31 10:19:54;;;;;;;1.95;1.23;;;;;;;24.77;49.12;99980.66;5094763;28;20543;-66
2023/07/31 10:22:23;;;;;;;3.85;1.40;;;;;;;24.79;49.35;99972.28;5095059;28;20048;-65
2023/07/31 10:24:53;;;;;;;3.63;1.27;;;;;;;24.81;49.23;99971.09;5094779;28;20109;-65
2023/07/31 10:27:21;;;;;;;2.05;1.30;;;;;;;24.83;48.79;99963.56;5094722;28;20388;-65
2023/07/31 10:29:53;;;;;;;2.45;1.48;;;;;;;24.84;48.63;99957.06;5094789;28;20466;-65
2023/07/31 10:32:22;;;;;;;3.53;1.40;;;;;;;24.84;48.99;99954.34;5094542;28;20048;-65
2023/07/31 10:34:52;;;;;;;2.65;1.50;;;;;;;24.88;48.82;99962.13;5094806;28;20138;-66
2023/07/31 10:37:24;;;;;;;2.50;1.27;;;;;;;24.89;49.24;99950.16;5094697;28;20105;-66
2023/07/31 10:40:00;;;;;;;3.13;1.40;;;;;;;24.92;48.85;99961.56;5094588;28;20117;-65
2023/07/31 10:42:30;;;;;;;2.05;1.20;;;;;;;24.94;48.49;99945.00;5094344;28;20048;-65
2023/07/31 10:45:01;;;;;;;2.08;1.20;;;;;;;24.96;48.59;99957.41;5094111;28;20094;-65
2023/07/31 10:47:29;;;;;;;2.92;1.27;;;;;;;24.98;48.74;99955.31;5094566;28;20056;-66
2023/07/31 10:50:13;;;;;;;3.05;1.50;;;;;;;25.02;48.25;99945.75;5094700;28;20455;-66
2023/07/31 10:52:41;;;;;;;4.63;1.50;;;;;;;25.05;48.49;99939.06;5094151;28;20051;-66
2023/07/31 10:55:23;;;;;;;2.80;1.50;;;;;;;25.07;48.49;99946.00;5093966;28;20509;-66
2023/07/31 10:57:51;;;;;;;3.38;1.25;;;;;;;25.09;48.51;99943.97;5094273;28;20047;-66
2023/07/31 11:00:26;;;;;;;4.07;1.40;;;;;;;25.13;48.27;99927.19;5094378;28;20044;-66
2023/07/31 11:02:58;;;;;;;2.83;1.20;;;;;;;25.16;47.98;99948.63;5094071;28;20055;-65
2023/07/31 11:05:43;;;;;;;;;;;;;;;25.19;48.07;99945.50;5094122;28;20507;-66
2023/07/31 11:08:16;;;;;;;2.42;1.20;;;;;;;25.23;48.33;99935.91;5094185;28;19946;-66
2023/07/31 11:10:45;;;;;;;4.57;1.35;;;;;;;25.26;47.87;99935.50;5093863;28;20052;-66
2023/07/31 11:13:13;;;;;;;2.60;1.27;;;;;;;25.27;48.29;99945.38;5093967;28;20062;-65
2023/07/31 11:15:42;;;;;;;2.47;1.48;;;;;;;25.31;47.94;99939.34;5093774;28;20048;-67
2023/07/31 11:18:11;;;;;;;3.78;1.40;;;;;;;25.36;47.35;99930.56;5093766;28;20044;-66
2023/07/31 11:20:40;;;;;;;3.10;1.42;;;;;;;25.39;47.28;99913.81;5093689;28;20048;-66
2023/07/31 11:23:10;;;;;;;2.22;1.20;;;;;;;25.43;46.84;99923.28;5093565;28;20048;-66
2023/07/31 11:25:41;;;;;;;3.65;1.20;;;;;;;25.47;46.88;99921.81;5093837;28;20044;-66
2023/07/31 11:28:11;;;;;;;2.58;1.10;;;;;;;25.51;47.00;99912.22;5093694;28;20050;-65
2023/07/31 11:30:41;;;;;;;2.63;1.40;;;;;;;25.55;46.80;99929.88;5093907;28;20556;-66
2023/07/31 11:33:12;;;;;;;3.63;1.25;;;;;;;25.58;46.56;99918.59;5093411;28;20051;-66
2023/07/31 11:35:44;;;;;;;2.63;1.25;;;;;;;25.61;46.28;99911.88;5093665;28;20453;-66
2023/07/31 11:38:22;;;;;;;3.25;1.20;;;;;;;25.65;46.04;99910.44;5093536;28;20051;-66
2023/07/31 11:40:51;;;;;;;2.10;1.20;;;;;;;25.66;46.47;99923.88;5093494;28;20095;-64
2023/07/31 11:43:20;;;;;;;2.15;1.13;;;;;;;25.70;45.98;99927.13;5093168;28;20493;-66
2023/07/31 11:45:50;;;;;;;2.25;1.20;;;;;;;25.74;45.79;99916.63;5093438;28;20044;-65